»·PEaware :: WAT295 KSBP-KSBD

WAT295 :: KSBP-KSBD

FLIGHT INFORMATION

Flight Status: Arrived
Operator: Unknown
More flights by this operator :: More flights under this callsign
Pilot: Corentin D. (28157)
Aircraft: BEECH AIRCRAFT PREMIER
(PRM1)
More flights by this aircraft type
Origin: KSBP San Luis Co Regl
United States
Destination: KSBD San Bernardino Intl
United States
More flights between these airports :: More routes between these airports
Route: +RZS V386 FIM V186 ITSME V264 POM V197 PDZ
File this flight plan on PilotEdge
Remarks: TEC route SBAP52
Altitude:
(Current/Filed)
11,000ft
Speed:
(Current/Filed)
270kts
Departed: 20-Jul-20 05:53 PM
Arrived: 20-Jul-20 06:39 PM
Distance/Time
Traveled:
182nm/0:46
Distance/Time
To Go:
Arrived

Flight Plot

Page will automatically refresh every two minutes.


Map Options




Map Legend


Flown Route
Filed Route
Departure Airport
Arrival Airport
Navaid (VOR, NDB)
Fix

Horizontal Profiles

Position Reports

Time Latitude Longitude Heading Altitude Ground
Speed
20-Jul-20 17:34 35.235723 -120.633734 213 225ft 0kts
20-Jul-20 17:35 35.235723 -120.633734 213 225ft 0kts
20-Jul-20 17:36 35.235723 -120.633734 213 225ft 0kts
20-Jul-20 17:37 35.235723 -120.633734 213 225ft 0kts
20-Jul-20 17:38 35.235723 -120.633734 213 225ft 0kts
20-Jul-20 17:39 35.235723 -120.633734 213 225ft 0kts
20-Jul-20 17:40 35.235723 -120.633734 213 225ft 0kts
20-Jul-20 17:41 35.235723 -120.633734 213 225ft 0kts
20-Jul-20 17:42 35.235723 -120.633734 213 225ft 0kts
20-Jul-20 17:43 35.235723 -120.633734 213 225ft 0kts
20-Jul-20 17:44 35.235723 -120.633734 213 225ft 0kts
20-Jul-20 17:45 35.235723 -120.633734 213 225ft 0kts
20-Jul-20 17:46 35.235723 -120.633734 213 225ft 0kts
20-Jul-20 17:47 35.235396 -120.633980 210 225ft 7kts
20-Jul-20 17:48 35.234751 -120.633995 125 224ft 0kts
20-Jul-20 17:49 35.233365 -120.632406 184 222ft 1kts
20-Jul-20 17:50 35.233265 -120.632434 203 221ft 0kts
20-Jul-20 17:51 35.233265 -120.632434 203 221ft 0kts
20-Jul-20 17:52 35.238297 -120.642682 305 225ft 123kts
20-Jul-20 17:53 35.261330 -120.685216 302 2363ft 167kts
20-Jul-20 17:54 35.287334 -120.734959 302 4864ft 182kts
20-Jul-20 17:55 35.293227 -120.797202 205 5878ft 227kts
20-Jul-20 17:56 35.238974 -120.773479 152 7988ft 222kts
20-Jul-20 17:57 35.185224 -120.718638 130 8900ft 261kts
20-Jul-20 17:58 35.141317 -120.654933 130 10971ft 244kts
20-Jul-20 17:59 35.091822 -120.584638 131 11020ft 292kts
20-Jul-20 18:00 35.036673 -120.506673 131 11020ft 312kts
20-Jul-20 18:01 34.978766 -120.425023 130 11020ft 323kts
20-Jul-20 18:02 34.920029 -120.342412 130 11019ft 328kts
20-Jul-20 18:03 34.861865 -120.260816 130 11015ft 330kts
20-Jul-20 18:04 34.800898 -120.175463 131 10995ft 331kts
20-Jul-20 18:05 34.740206 -120.090651 130 11033ft 329kts
20-Jul-20 18:06 34.698484 -120.008296 109 13506ft 258kts
20-Jul-20 18:07 34.676132 -119.932649 107 15868ft 229kts
20-Jul-20 18:08 34.650816 -119.846710 108 15976ft 308kts
20-Jul-20 18:09 34.618974 -119.740377 108 15951ft 354kts
20-Jul-20 18:10 34.585720 -119.629995 108 15946ft 361kts
20-Jul-20 18:11 34.550778 -119.514383 108 15935ft 365kts
20-Jul-20 18:12 34.515789 -119.399053 108 15939ft 366kts
20-Jul-20 18:13 34.480225 -119.282310 109 15951ft 367kts
20-Jul-20 18:14 34.444840 -119.166595 109 15950ft 367kts
20-Jul-20 18:15 34.409097 -119.050177 109 15946ft 368kts
20-Jul-20 18:16 34.373363 -118.934242 109 15945ft 368kts
20-Jul-20 18:17 34.336583 -118.819550 112 15945ft 367kts
20-Jul-20 18:18 34.297072 -118.705116 112 15939ft 365kts
20-Jul-20 18:19 34.258183 -118.591845 112 15930ft 365kts
20-Jul-20 18:20 34.219162 -118.478186 111 15929ft 364kts
20-Jul-20 18:21 34.185929 -118.368119 109 15929ft 364kts
20-Jul-20 18:22 34.151682 -118.254444 110 15926ft 364kts
20-Jul-20 18:23 34.116710 -118.139722 110 15375ft 379kts
20-Jul-20 18:24 34.079631 -118.020362 111 13662ft 368kts
20-Jul-20 18:26 34.043199 -117.908924 111 11645ft 341kts
20-Jul-20 18:27 34.011354 -117.811943 111 9587ft 290kts
20-Jul-20 18:28 33.988985 -117.721050 91 7458ft 282kts
20-Jul-20 18:29 33.985930 -117.628264 91 5052ft 266kts
20-Jul-20 18:30 33.982781 -117.544531 91 4957ft 245kts
20-Jul-20 18:31 33.979859 -117.463376 91 5025ft 238kts
20-Jul-20 18:32 33.977263 -117.383308 91 5010ft 237kts
20-Jul-20 18:33 33.987290 -117.309187 52 4879ft 229kts
20-Jul-20 18:34 34.022545 -117.247139 56 4299ft 205kts
20-Jul-20 18:35 34.054270 -117.186976 55 2969ft 203kts
20-Jul-20 18:36 34.089318 -117.164125 335 2311ft 146kts
20-Jul-20 18:37 34.107413 -117.195102 250 1669ft 118kts
20-Jul-20 18:38 34.097247 -117.228028 250 1142ft 47kts
20-Jul-20 18:39 34.095874 -117.236062 328 1122ft 0kts
20-Jul-20 18:40 34.097186 -117.234742 69 1125ft 27kts
20-Jul-20 18:41 34.099155 -117.228095 71 1142ft 11kts
20-Jul-20 18:42 34.101698 -117.224921 172 1152ft 0kts
20-Jul-20 18:42 34.101698 -117.224921 172 1152ft 0kts
20-Jul-20 18:43 34.101698 -117.224921 172 1152ft 0kts
20-Jul-20 18:45 34.101698 -117.224921 172 1152ft 0kts

Navigation Log

Ident Type
Flight plan parsing failed, navigation log unavailable